sensor_id;sensor_type;location;lat;lon;timestamp;P1;durP1;ratioP1;P2;durP2;ratioP2
20290;SDS011;10304;51.074;13.754;2023-08-01T00:00:15;4.80;;;3.10;;
20290;SDS011;10304;51.074;13.754;2023-08-01T00:02:42;4.22;;;3.05;;
20290;SDS011;10304;51.074;13.754;2023-08-01T00:05:09;6.90;;;3.17;;
20290;SDS011;10304;51.074;13.754;2023-08-01T00:07:36;5.65;;;2.97;;
20290;SDS011;10304;51.074;13.754;2023-08-01T00:10:03;4.85;;;3.03;;
20290;SDS011;10304;51.074;13.754;2023-08-01T00:12:31;4.25;;;2.92;;
20290;SDS011;10304;51.074;13.754;2023-08-01T00:14:57;9.27;;;3.28;;
20290;SDS011;10304;51.074;13.754;2023-08-01T00:17:24;3.80;;;2.90;;
20290;SDS011;10304;51.074;13.754;2023-08-01T00:19:51;5.22;;;2.92;;
20290;SDS011;10304;51.074;13.754;2023-08-01T00:22:18;5.85;;;3.25;;
20290;SDS011;10304;51.074;13.754;2023-08-01T00:24:44;7.45;;;3.40;;
20290;SDS011;10304;51.074;13.754;2023-08-01T00:27:13;6.10;;;3.17;;
20290;SDS011;10304;51.074;13.754;2023-08-01T00:29:40;6.20;;;3.13;;
20290;SDS011;10304;51.074;13.754;2023-08-01T00:32:07;4.55;;;3.15;;
20290;SDS011;10304;51.074;13.754;2023-08-01T00:34:34;4.72;;;3.10;;
20290;SDS011;10304;51.074;13.754;2023-08-01T00:37:01;4.95;;;2.92;;
20290;SDS011;10304;51.074;13.754;2023-08-01T00:39:28;7.30;;;3.17;;
20290;SDS011;10304;51.074;13.754;2023-08-01T00:41:55;5.82;;;3.05;;
20290;SDS011;10304;51.074;13.754;2023-08-01T00:44:22;4.90;;;2.85;;
20290;SDS011;10304;51.074;13.754;2023-08-01T00:46:49;6.22;;;3.00;;
20290;SDS011;10304;51.074;13.754;2023-08-01T00:49:16;5.63;;;3.47;;
20290;SDS011;10304;51.074;13.754;2023-08-01T00:51:43;4.28;;;2.97;;
20290;SDS011;10304;51.074;13.754;2023-08-01T00:54:10;8.63;;;3.40;;
20290;SDS011;10304;51.074;13.754;2023-08-01T00:56:36;6.00;;;3.47;;
20290;SDS011;10304;51.074;13.754;2023-08-01T00:59:04;6.03;;;3.03;;
20290;SDS011;10304;51.074;13.754;2023-08-01T01:01:31;6.90;;;3.35;;
20290;SDS011;10304;51.074;13.754;2023-08-01T01:03:58;4.18;;;3.10;;
20290;SDS011;10304;51.074;13.754;2023-08-01T01:06:31;4.80;;;3.05;;
20290;SDS011;10304;51.074;13.754;2023-08-01T01:09:01;4.82;;;2.65;;
20290;SDS011;10304;51.074;13.754;2023-08-01T01:11:31;3.90;;;2.72;;
20290;SDS011;10304;51.074;13.754;2023-08-01T01:13:57;5.82;;;2.80;;
20290;SDS011;10304;51.074;13.754;2023-08-01T01:16:24;4.35;;;3.08;;
20290;SDS011;10304;51.074;13.754;2023-08-01T01:18:51;5.15;;;3.08;;
20290;SDS011;10304;51.074;13.754;2023-08-01T01:21:18;8.40;;;3.30;;
20290;SDS011;10304;51.074;13.754;2023-08-01T01:23:44;5.78;;;2.95;;
20290;SDS011;10304;51.074;13.754;2023-08-01T01:26:12;14.27;;;9.75;;
20290;SDS011;10304;51.074;13.754;2023-08-01T01:28:39;5.07;;;3.22;;
20290;SDS011;10304;51.074;13.754;2023-08-01T01:31:08;4.18;;;3.15;;
20290;SDS011;10304;51.074;13.754;2023-08-01T01:33:35;3.95;;;3.20;;
20290;SDS011;10304;51.074;13.754;2023-08-01T01:36:02;4.75;;;3.10;;
20290;SDS011;10304;51.074;13.754;2023-08-01T01:38:29;4.55;;;3.20;;
20290;SDS011;10304;51.074;13.754;2023-08-01T01:40:55;6.38;;;3.45;;
20290;SDS011;10304;51.074;13.754;2023-08-01T01:43:22;6.10;;;3.55;;
20290;SDS011;10304;51.074;13.754;2023-08-01T01:45:49;4.93;;;3.20;;
20290;SDS011;10304;51.074;13.754;2023-08-01T01:48:16;5.35;;;3.30;;
20290;SDS011;10304;51.074;13.754;2023-08-01T01:50:42;5.07;;;2.95;;
20290;SDS011;10304;51.074;13.754;2023-08-01T01:53:09;5.25;;;3.40;;
20290;SDS011;10304;51.074;13.754;2023-08-01T01:55:36;8.60;;;3.50;;
20290;SDS011;10304;51.074;13.754;2023-08-01T01:58:03;5.55;;;3.25;;
20290;SDS011;10304;51.074;13.754;2023-08-01T02:00:29;4.80;;;3.28;;
20290;SDS011;10304;51.074;13.754;2023-08-01T02:02:56;4.65;;;3.33;;
20290;SDS011;10304;51.074;13.754;2023-08-01T02:05:23;5.78;;;3.25;;
20290;SDS011;10304;51.074;13.754;2023-08-01T02:07:50;5.57;;;3.15;;
20290;SDS011;10304;51.074;13.754;2023-08-01T02:10:16;5.55;;;3.20;;
20290;SDS011;10304;51.074;13.754;2023-08-01T02:12:43;5.07;;;2.90;;
20290;SDS011;10304;51.074;13.754;2023-08-01T02:15:10;4.57;;;3.20;;
20290;SDS011;10304;51.074;13.754;2023-08-01T02:17:37;5.85;;;3.25;;
20290;SDS011;10304;51.074;13.754;2023-08-01T02:20:04;5.82;;;4.47;;
20290;SDS011;10304;51.074;13.754;2023-08-01T02:22:31;4.40;;;3.40;;
20290;SDS011;10304;51.074;13.754;2023-08-01T02:24:58;4.50;;;3.10;;
20290;SDS011;10304;51.074;13.754;2023-08-01T02:27:25;4.55;;;3.47;;
20290;SDS011;10304;51.074;13.754;2023-08-01T02:29:52;5.95;;;3.60;;
20290;SDS011;10304;51.074;13.754;2023-08-01T02:32:18;5.97;;;3.40;;
20290;SDS011;10304;51.074;13.754;2023-08-01T02:34:45;6.25;;;3.78;;
20290;SDS011;10304;51.074;13.754;2023-08-01T02:37:12;5.38;;;3.65;;
20290;SDS011;10304;51.074;13.754;2023-08-01T02:39:39;5.63;;;3.25;;
20290;SDS011;10304;51.074;13.754;2023-08-01T02:42:06;4.60;;;3.55;;
20290;SDS011;10304;51.074;13.754;2023-08-01T02:44:32;5.10;;;3.50;;
20290;SDS011;10304;51.074;13.754;2023-08-01T02:46:59;4.95;;;3.50;;
20290;SDS011;10304;51.074;13.754;2023-08-01T02:49:26;5.15;;;3.33;;
20290;SDS011;10304;51.074;13.754;2023-08-01T02:51:53;4.40;;;3.28;;
20290;SDS011;10304;51.074;13.754;2023-08-01T02:54:19;7.00;;;3.42;;
20290;SDS011;10304;51.074;13.754;2023-08-01T02:56:46;4.82;;;3.30;;
20290;SDS011;10304;51.074;13.754;2023-08-01T02:59:13;5.72;;;3.35;;
20290;SDS011;10304;51.074;13.754;2023-08-01T03:01:39;4.38;;;3.47;;
20290;SDS011;10304;51.074;13.754;2023-08-01T03:04:06;5.70;;;3.88;;
20290;SDS011;10304;51.074;13.754;2023-08-01T03:06:33;5.60;;;3.20;;
20290;SDS011;10304;51.074;13.754;2023-08-01T03:09:00;4.22;;;3.33;;
20290;SDS011;10304;51.074;13.754;2023-08-01T03:11:27;5.15;;;3.50;;
20290;SDS011;10304;51.074;13.754;2023-08-01T03:13:54;4.68;;;3.55;;
20290;SDS011;10304;51.074;13.754;2023-08-01T03:16:21;5.88;;;3.75;;
20290;SDS011;10304;51.074;13.754;2023-08-01T03:18:48;5.68;;;3.38;;
20290;SDS011;10304;51.074;13.754;2023-08-01T03:21:15;4.95;;;3.70;;
20290;SDS011;10304;51.074;13.754;2023-08-01T03:23:42;6.30;;;3.58;;
20290;SDS011;10304;51.074;13.754;2023-08-01T03:26:09;10.93;;;7.80;;
20290;SDS011;10304;51.074;13.754;2023-08-01T03:28:36;18.00;;;12.82;;
20290;SDS011;10304;51.074;13.754;2023-08-01T03:31:02;6.38;;;4.25;;
20290;SDS011;10304;51.074;13.754;2023-08-01T03:33:29;6.32;;;4.60;;
20290;SDS011;10304;51.074;13.754;2023-08-01T03:35:56;6.50;;;3.88;;
20290;SDS011;10304;51.074;13.754;2023-08-01T03:38:23;5.57;;;3.35;;
20290;SDS011;10304;51.074;13.754;2023-08-01T03:40:50;5.10;;;3.53;;
20290;SDS011;10304;51.074;13.754;2023-08-01T03:43:16;4.82;;;3.33;;
20290;SDS011;10304;51.074;13.754;2023-08-01T03:45:43;5.75;;;3.30;;
20290;SDS011;10304;51.074;13.754;2023-08-01T03:48:10;4.53;;;3.25;;
20290;SDS011;10304;51.074;13.754;2023-08-01T03:50:37;5.15;;;3.80;;
20290;SDS011;10304;51.074;13.754;2023-08-01T03:53:04;5.43;;;3.38;;
20290;SDS011;10304;51.074;13.754;2023-08-01T03:55:31;4.15;;;3.15;;
20290;SDS011;10304;51.074;13.754;2023-08-01T03:57:58;4.90;;;3.13;;
20290;SDS011;10304;51.074;13.754;2023-08-01T04:00:25;5.55;;;3.53;;
20290;SDS011;10304;51.074;13.754;2023-08-01T04:02:52;6.13;;;3.50;;
20290;SDS011;10304;51.074;13.754;2023-08-01T04:05:19;4.22;;;3.15;;
20290;SDS011;10304;51.074;13.754;2023-08-01T04:07:45;5.28;;;3.75;;
20290;SDS011;10304;51.074;13.754;2023-08-01T04:10:12;7.05;;;3.22;;
20290;SDS011;10304;51.074;13.754;2023-08-01T04:12:39;4.70;;;3.40;;
20290;SDS011;10304;51.074;13.754;2023-08-01T04:15:06;5.05;;;3.65;;
20290;SDS011;10304;51.074;13.754;2023-08-01T04:17:33;5.60;;;3.38;;
20290;SDS011;10304;51.074;13.754;2023-08-01T04:19:59;7.45;;;3.78;;
20290;SDS011;10304;51.074;13.754;2023-08-01T04:22:26;6.70;;;3.50;;
20290;SDS011;10304;51.074;13.754;2023-08-01T04:24:53;6.00;;;3.58;;
20290;SDS011;10304;51.074;13.754;2023-08-01T04:27:20;4.15;;;3.40;;
20290;SDS011;10304;51.074;13.754;2023-08-01T04:29:47;5.50;;;3.85;;
20290;SDS011;10304;51.074;13.754;2023-08-01T04:32:14;4.78;;;3.78;;
20290;SDS011;10304;51.074;13.754;2023-08-01T04:34:41;6.53;;;3.90;;
20290;SDS011;10304;51.074;13.754;2023-08-01T04:37:08;5.38;;;4.10;;
20290;SDS011;10304;51.074;13.754;2023-08-01T04:39:36;5.88;;;3.90;;
20290;SDS011;10304;51.074;13.754;2023-08-01T04:42:03;4.95;;;4.25;;
20290;SDS011;10304;51.074;13.754;2023-08-01T04:44:31;4.22;;;3.72;;
20290;SDS011;10304;51.074;13.754;2023-08-01T04:46:57;6.00;;;4.18;;
20290;SDS011;10304;51.074;13.754;2023-08-01T04:49:24;4.60;;;3.90;;
20290;SDS011;10304;51.074;13.754;2023-08-01T04:51:51;5.20;;;4.20;;
20290;SDS011;10304;51.074;13.754;2023-08-01T04:54:18;4.70;;;4.05;;
20290;SDS011;10304;51.074;13.754;2023-08-01T04:56:45;4.30;;;3.90;;
20290;SDS011;10304;51.074;13.754;2023-08-01T04:59:11;4.78;;;3.97;;
20290;SDS011;10304;51.074;13.754;2023-08-01T05:01:38;6.57;;;4.90;;
20290;SDS011;10304;51.074;13.754;2023-08-01T05:04:05;4.95;;;4.32;;
20290;SDS011;10304;51.074;13.754;2023-08-01T05:06:31;5.10;;;4.35;;
20290;SDS011;10304;51.074;13.754;2023-08-01T05:08:59;5.57;;;4.28;;
20290;SDS011;10304;51.074;13.754;2023-08-01T05:11:26;5.90;;;4.50;;
20290;SDS011;10304;51.074;13.754;2023-08-01T05:13:53;5.55;;;4.30;;
20290;SDS011;10304;51.074;13.754;2023-08-01T05:16:19;5.20;;;4.70;;
20290;SDS011;10304;51.074;13.754;2023-08-01T05:18:46;5.68;;;4.88;;
20290;SDS011;10304;51.074;13.754;2023-08-01T05:21:13;5.63;;;5.13;;
20290;SDS011;10304;51.074;13.754;2023-08-01T05:23:40;21.35;;;16.27;;
20290;SDS011;10304;51.074;13.754;2023-08-01T05:26:06;18.83;;;13.55;;
20290;SDS011;10304;51.074;13.754;2023-08-01T05:28:33;6.95;;;6.25;;
20290;SDS011;10304;51.074;13.754;2023-08-01T05:31:00;6.20;;;5.60;;
20290;SDS011;10304;51.074;13.754;2023-08-01T05:33:27;6.32;;;5.00;;
20290;SDS011;10304;51.074;13.754;2023-08-01T05:35:53;5.55;;;4.70;;
20290;SDS011;10304;51.074;13.754;2023-08-01T05:38:20;5.05;;;4.65;;
20290;SDS011;10304;51.074;13.754;2023-08-01T05:40:47;6.28;;;5.10;;
20290;SDS011;10304;51.074;13.754;2023-08-01T05:43:14;5.60;;;5.10;;
20290;SDS011;10304;51.074;13.754;2023-08-01T05:45:40;5.82;;;5.32;;
20290;SDS011;10304;51.074;13.754;2023-08-01T05:48:07;5.53;;;5.00;;
20290;SDS011;10304;51.074;13.754;2023-08-01T05:50:34;6.32;;;5.72;;
20290;SDS011;10304;51.074;13.754;2023-08-01T05:53:01;6.10;;;5.55;;
20290;SDS011;10304;51.074;13.754;2023-08-01T05:55:28;6.53;;;5.93;;
20290;SDS011;10304;51.074;13.754;2023-08-01T05:57:54;7.05;;;5.82;;
20290;SDS011;10304;51.074;13.754;2023-08-01T06:00:21;5.97;;;5.35;;
20290;SDS011;10304;51.074;13.754;2023-08-01T06:02:48;6.15;;;5.65;;
20290;SDS011;10304;51.074;13.754;2023-08-01T06:05:15;7.07;;;6.03;;
20290;SDS011;10304;51.074;13.754;2023-08-01T06:07:42;6.70;;;6.07;;
20290;SDS011;10304;51.074;13.754;2023-08-01T06:10:08;11.23;;;6.80;;
20290;SDS011;10304;51.074;13.754;2023-08-01T06:12:35;7.07;;;6.38;;
20290;SDS011;10304;51.074;13.754;2023-08-01T06:15:03;8.45;;;6.95;;
20290;SDS011;10304;51.074;13.754;2023-08-01T06:17:30;8.30;;;7.50;;
20290;SDS011;10304;51.074;13.754;2023-08-01T06:19:57;7.97;;;7.20;;
20290;SDS011;10304;51.074;13.754;2023-08-01T06:22:24;7.25;;;6.55;;
20290;SDS011;10304;51.074;13.754;2023-08-01T06:24:50;8.23;;;7.15;;
20290;SDS011;10304;51.074;13.754;2023-08-01T06:27:17;7.28;;;6.68;;
20290;SDS011;10304;51.074;13.754;2023-08-01T06:29:44;6.60;;;6.03;;
20290;SDS011;10304;51.074;13.754;2023-08-01T06:32:11;6.60;;;6.00;;
20290;SDS011;10304;51.074;13.754;2023-08-01T06:34:38;6.50;;;6.00;;
20290;SDS011;10304;51.074;13.754;2023-08-01T06:37:04;6.40;;;5.90;;
20290;SDS011;10304;51.074;13.754;2023-08-01T06:39:31;6.93;;;6.32;;
20290;SDS011;10304;51.074;13.754;2023-08-01T06:41:58;6.50;;;5.90;;
20290;SDS011;10304;51.074;13.754;2023-08-01T06:44:25;11.45;;;7.90;;
20290;SDS011;10304;51.074;13.754;2023-08-01T06:46:52;4.93;;;4.50;;
20290;SDS011;10304;51.074;13.754;2023-08-01T06:49:19;3.53;;;2.05;;
20290;SDS011;10304;51.074;13.754;2023-08-01T06:51:46;1.98;;;1.52;;
20290;SDS011;10304;51.074;13.754;2023-08-01T06:54:12;3.58;;;1.90;;
20290;SDS011;10304;51.074;13.754;2023-08-01T06:56:39;2.22;;;1.80;;
20290;SDS011;10304;51.074;13.754;2023-08-01T06:59:06;1.83;;;1.70;;
20290;SDS011;10304;51.074;13.754;2023-08-01T07:01:33;2.05;;;1.70;;
20290;SDS011;10304;51.074;13.754;2023-08-01T07:04:01;3.08;;;1.80;;
20290;SDS011;10304;51.074;13.754;2023-08-01T07:06:28;2.60;;;1.65;;
20290;SDS011;10304;51.074;13.754;2023-08-01T07:08:54;3.85;;;2.00;;
20290;SDS011;10304;51.074;13.754;2023-08-01T07:11:23;3.72;;;2.10;;
20290;SDS011;10304;51.074;13.754;2023-08-01T07:13:50;3.15;;;1.80;;
20290;SDS011;10304;51.074;13.754;2023-08-01T07:16:17;2.83;;;1.80;;
20290;SDS011;10304;51.074;13.754;2023-08-01T07:18:44;3.70;;;2.13;;
20290;SDS011;10304;51.074;13.754;2023-08-01T07:21:10;2.63;;;1.80;;
20290;SDS011;10304;51.074;13.754;2023-08-01T07:23:37;3.53;;;2.05;;
20290;SDS011;10304;51.074;13.754;2023-08-01T07:26:04;2.67;;;1.67;;
20290;SDS011;10304;51.074;13.754;2023-08-01T07:28:31;1.85;;;1.60;;
20290;SDS011;10304;51.074;13.754;2023-08-01T07:31:05;3.85;;;1.70;;
20290;SDS011;10304;51.074;13.754;2023-08-01T07:33:33;2.25;;;1.35;;
20290;SDS011;10304;51.074;13.754;2023-08-01T07:36:00;3.35;;;1.50;;
20290;SDS011;10304;51.074;13.754;2023-08-01T07:38:27;1.65;;;1.35;;
20290;SDS011;10304;51.074;13.754;2023-08-01T07:40:55;1.25;;;1.15;;
20290;SDS011;10304;51.074;13.754;2023-08-01T07:43:22;3.10;;;1.40;;
20290;SDS011;10304;51.074;13.754;2023-08-01T07:45:49;1.90;;;1.48;;
20290;SDS011;10304;51.074;13.754;2023-08-01T07:48:21;2.90;;;1.40;;
20290;SDS011;10304;51.074;13.754;2023-08-01T07:50:47;2.50;;;1.40;;
20290;SDS011;10304;51.074;13.754;2023-08-01T07:53:14;1.40;;;1.30;;
20290;SDS011;10304;51.074;13.754;2023-08-01T07:55:41;2.90;;;1.30;;
20290;SDS011;10304;51.074;13.754;2023-08-01T07:58:08;1.50;;;1.40;;
20290;SDS011;10304;51.074;13.754;2023-08-01T08:00:35;3.92;;;1.48;;
20290;SDS011;10304;51.074;13.754;2023-08-01T08:03:02;1.58;;;1.17;;
20290;SDS011;10304;51.074;13.754;2023-08-01T08:05:29;2.85;;;1.38;;
20290;SDS011;10304;51.074;13.754;2023-08-01T08:07:56;1.55;;;1.30;;
20290;SDS011;10304;51.074;13.754;2023-08-01T08:10:22;1.50;;;1.40;;
20290;SDS011;10304;51.074;13.754;2023-08-01T08:12:49;3.10;;;1.50;;
20290;SDS011;10304;51.074;13.754;2023-08-01T08:15:16;1.40;;;1.30;;
20290;SDS011;10304;51.074;13.754;2023-08-01T08:17:43;2.25;;;1.33;;
20290;SDS011;10304;51.074;13.754;2023-08-01T08:20:10;1.85;;;1.38;;
20290;SDS011;10304;51.074;13.754;2023-08-01T08:22:37;1.20;;;1.10;;
20290;SDS011;10304;51.074;13.754;2023-08-01T08:25:04;1.88;;;1.10;;
20290;SDS011;10304;51.074;13.754;2023-08-01T08:27:31;1.58;;;1.10;;
20290;SDS011;10304;51.074;13.754;2023-08-01T08:29:58;1.20;;;1.08;;
20290;SDS011;10304;51.074;13.754;2023-08-01T08:32:24;1.40;;;1.02;;
20290;SDS011;10304;51.074;13.754;2023-08-01T08:34:51;0.95;;;0.90;;
20290;SDS011;10304;51.074;13.754;2023-08-01T08:37:18;1.80;;;1.10;;
20290;SDS011;10304;51.074;13.754;2023-08-01T08:39:45;1.05;;;0.90;;
20290;SDS011;10304;51.074;13.754;2023-08-01T08:42:13;1.55;;;0.98;;
20290;SDS011;10304;51.074;13.754;2023-08-01T08:44:43;1.73;;;1.30;;
20290;SDS011;10304;51.074;13.754;2023-08-01T08:47:11;1.58;;;1.10;;
20290;SDS011;10304;51.074;13.754;2023-08-01T08:49:39;1.45;;;1.10;;
20290;SDS011;10304;51.074;13.754;2023-08-01T08:52:07;1.20;;;0.80;;
20290;SDS011;10304;51.074;13.754;2023-08-01T08:54:36;1.35;;;1.05;;
20290;SDS011;10304;51.074;13.754;2023-08-01T08:57:06;1.83;;;0.90;;
20290;SDS011;10304;51.074;13.754;2023-08-01T08:59:34;0.73;;;0.73;;
20290;SDS011;10304;51.074;13.754;2023-08-01T09:02:02;1.10;;;0.93;;
20290;SDS011;10304;51.074;13.754;2023-08-01T09:04:30;1.02;;;0.93;;
20290;SDS011;10304;51.074;13.754;2023-08-01T09:07:02;1.00;;;0.90;;
20290;SDS011;10304;51.074;13.754;2023-08-01T09:09:32;0.90;;;0.90;;
20290;SDS011;10304;51.074;13.754;2023-08-01T09:12:00;1.50;;;1.08;;
20290;SDS011;10304;51.074;13.754;2023-08-01T09:14:27;3.80;;;2.08;;
20290;SDS011;10304;51.074;13.754;2023-08-01T09:16:54;1.17;;;0.93;;
20290;SDS011;10304;51.074;13.754;2023-08-01T09:19:21;1.10;;;0.88;;
20290;SDS011;10304;51.074;13.754;2023-08-01T09:21:51;1.55;;;1.10;;
20290;SDS011;10304;51.074;13.754;2023-08-01T09:24:18;1.40;;;1.08;;
20290;SDS011;10304;51.074;13.754;2023-08-01T09:26:47;1.38;;;1.10;;
20290;SDS011;10304;51.074;13.754;2023-08-01T09:29:19;1.38;;;0.98;;
20290;SDS011;10304;51.074;13.754;2023-08-01T09:31:46;1.30;;;1.20;;
20290;SDS011;10304;51.074;13.754;2023-08-01T09:34:18;0.95;;;0.90;;
20290;SDS011;10304;51.074;13.754;2023-08-01T09:36:49;1.00;;;0.90;;
20290;SDS011;10304;51.074;13.754;2023-08-01T09:39:17;2.28;;;1.40;;
20290;SDS011;10304;51.074;13.754;2023-08-01T09:41:46;1.15;;;0.80;;
20290;SDS011;10304;51.074;13.754;2023-08-01T09:44:26;1.95;;;0.80;;
20290;SDS011;10304;51.074;13.754;2023-08-01T09:46:57;1.35;;;1.00;;
20290;SDS011;10304;51.074;13.754;2023-08-01T09:49:26;1.55;;;1.00;;
20290;SDS011;10304;51.074;13.754;2023-08-01T09:51:54;1.73;;;0.90;;
20290;SDS011;10304;51.074;13.754;2023-08-01T09:54:21;1.13;;;0.90;;
20290;SDS011;10304;51.074;13.754;2023-08-01T09:56:49;1.35;;;1.20;;
20290;SDS011;10304;51.074;13.754;2023-08-01T09:59:21;1.25;;;1.13;;
20290;SDS011;10304;51.074;13.754;2023-08-01T10:01:53;2.58;;;0.98;;
20290;SDS011;10304;51.074;13.754;2023-08-01T10:04:23;2.65;;;1.10;;
20290;SDS011;10304;51.074;13.754;2023-08-01T10:06:58;3.83;;;0.90;;
20290;SDS011;10304;51.074;13.754;2023-08-01T10:09:26;1.10;;;0.70;;
20290;SDS011;10304;51.074;13.754;2023-08-01T10:11:57;1.00;;;0.90;;
20290;SDS011;10304;51.074;13.754;2023-08-01T10:14:25;1.17;;;1.02;;
20290;SDS011;10304;51.074;13.754;2023-08-01T10:16:52;2.40;;;0.90;;
20290;SDS011;10304;51.074;13.754;2023-08-01T10:19:20;1.10;;;1.00;;
20290;SDS011;10304;51.074;13.754;2023-08-01T10:21:48;1.38;;;1.05;;
20290;SDS011;10304;51.074;13.754;2023-08-01T10:24:15;1.15;;;0.93;;
20290;SDS011;10304;51.074;13.754;2023-08-01T10:26:46;1.10;;;0.80;;
20290;SDS011;10304;51.074;13.754;2023-08-01T10:29:13;1.60;;;1.00;;
20290;SDS011;10304;51.074;13.754;2023-08-01T10:31:50;2.63;;;1.00;;
20290;SDS011;10304;51.074;13.754;2023-08-01T10:34:20;1.83;;;1.10;;
20290;SDS011;10304;51.074;13.754;2023-08-01T10:36:54;2.53;;;1.00;;
20290;SDS011;10304;51.074;13.754;2023-08-01T10:39:26;1.92;;;1.00;;
20290;SDS011;10304;51.074;13.754;2023-08-01T10:42:00;1.52;;;1.02;;
20290;SDS011;10304;51.074;13.754;2023-08-01T10:44:28;1.10;;;1.00;;
20290;SDS011;10304;51.074;13.754;2023-08-01T10:47:03;1.85;;;1.02;;
20290;SDS011;10304;51.074;13.754;2023-08-01T10:52:26;0.90;;;0.75;;
20290;SDS011;10304;51.074;13.754;2023-08-01T10:55:01;1.02;;;0.90;;
20290;SDS011;10304;51.074;13.754;2023-08-01T10:57:33;1.05;;;0.82;;
20290;SDS011;10304;51.074;13.754;2023-08-01T11:00:02;1.77;;;1.08;;
20290;SDS011;10304;51.074;13.754;2023-08-01T11:02:33;2.22;;;1.02;;
20290;SDS011;10304;51.074;13.754;2023-08-01T11:05:05;0.98;;;0.80;;
20290;SDS011;10304;51.074;13.754;2023-08-01T11:07:33;1.85;;;0.90;;
20290;SDS011;10304;51.074;13.754;2023-08-01T11:10:08;1.05;;;1.00;;
20290;SDS011;10304;51.074;13.754;2023-08-01T11:12:38;0.93;;;0.90;;
20290;SDS011;10304;51.074;13.754;2023-08-01T11:15:06;1.05;;;0.95;;
20290;SDS011;10304;51.074;13.754;2023-08-01T11:17:35;2.80;;;0.90;;
20290;SDS011;10304;51.074;13.754;2023-08-01T11:20:07;1.85;;;1.10;;
20290;SDS011;10304;51.074;13.754;2023-08-01T11:22:35;0.98;;;0.98;;
20290;SDS011;10304;51.074;13.754;2023-08-01T11:25:03;1.10;;;1.00;;
20290;SDS011;10304;51.074;13.754;2023-08-01T11:27:31;1.00;;;0.90;;
20290;SDS011;10304;51.074;13.754;2023-08-01T11:29:59;1.20;;;0.90;;
20290;SDS011;10304;51.074;13.754;2023-08-01T11:32:36;0.88;;;0.88;;
20290;SDS011;10304;51.074;13.754;2023-08-01T11:35:05;1.58;;;0.80;;
20290;SDS011;10304;51.074;13.754;2023-08-01T11:37:33;0.85;;;0.85;;
20290;SDS011;10304;51.074;13.754;2023-08-01T11:40:04;1.73;;;1.00;;
20290;SDS011;10304;51.074;13.754;2023-08-01T11:42:34;0.88;;;0.88;;
20290;SDS011;10304;51.074;13.754;2023-08-01T11:45:11;1.20;;;0.90;;
20290;SDS011;10304;51.074;13.754;2023-08-01T11:47:44;1.00;;;0.90;;
20290;SDS011;10304;51.074;13.754;2023-08-01T11:50:13;1.45;;;1.10;;
20290;SDS011;10304;51.074;13.754;2023-08-01T11:52:46;1.50;;;0.90;;
20290;SDS011;10304;51.074;13.754;2023-08-01T11:55:23;3.08;;;1.00;;
20290;SDS011;10304;51.074;13.754;2023-08-01T11:57:54;1.38;;;1.10;;
20290;SDS011;10304;51.074;13.754;2023-08-01T12:00:22;1.17;;;1.08;;
20290;SDS011;10304;51.074;13.754;2023-08-01T12:02:50;2.80;;;1.00;;
20290;SDS011;10304;51.074;13.754;2023-08-01T12:05:21;2.05;;;1.10;;
20290;SDS011;10304;51.074;13.754;2023-08-01T12:07:49;1.50;;;1.10;;
20290;SDS011;10304;51.074;13.754;2023-08-01T12:10:16;4.00;;;1.20;;
20290;SDS011;10304;51.074;13.754;2023-08-01T12:12:44;1.38;;;1.27;;
20290;SDS011;10304;51.074;13.754;2023-08-01T12:15:13;2.17;;;1.00;;
20290;SDS011;10304;51.074;13.754;2023-08-01T12:17:41;3.00;;;0.90;;
20290;SDS011;10304;51.074;13.754;2023-08-01T12:20:08;1.90;;;0.80;;
20290;SDS011;10304;51.074;13.754;2023-08-01T12:22:35;1.88;;;0.90;;
20290;SDS011;10304;51.074;13.754;2023-08-01T12:25:02;3.13;;;1.00;;
20290;SDS011;10304;51.074;13.754;2023-08-01T12:27:29;4.20;;;0.90;;
20290;SDS011;10304;51.074;13.754;2023-08-01T12:29:56;4.45;;;1.02;;
20290;SDS011;10304;51.074;13.754;2023-08-01T12:32:22;2.25;;;0.90;;
20290;SDS011;10304;51.074;13.754;2023-08-01T12:34:49;2.22;;;0.88;;
20290;SDS011;10304;51.074;13.754;2023-08-01T12:37:16;1.95;;;0.80;;
20290;SDS011;10304;51.074;13.754;2023-08-01T12:39:43;1.75;;;0.90;;
20290;SDS011;10304;51.074;13.754;2023-08-01T12:42:11;2.78;;;1.20;;
20290;SDS011;10304;51.074;13.754;2023-08-01T12:44:38;2.72;;;1.23;;
20290;SDS011;10304;51.074;13.754;2023-08-01T12:47:05;2.47;;;0.90;;
20290;SDS011;10304;51.074;13.754;2023-08-01T12:49:34;6.28;;;1.55;;
20290;SDS011;10304;51.074;13.754;2023-08-01T12:52:02;1.75;;;1.10;;
20290;SDS011;10304;51.074;13.754;2023-08-01T12:54:29;3.22;;;1.40;;
20290;SDS011;10304;51.074;13.754;2023-08-01T12:56:56;1.95;;;1.13;;
20290;SDS011;10304;51.074;13.754;2023-08-01T12:59:22;2.78;;;1.35;;
20290;SDS011;10304;51.074;13.754;2023-08-01T13:01:49;3.58;;;1.30;;
20290;SDS011;10304;51.074;13.754;2023-08-01T13:04:16;2.58;;;1.00;;
20290;SDS011;10304;51.074;13.754;2023-08-01T13:06:43;1.30;;;1.08;;
20290;SDS011;10304;51.074;13.754;2023-08-01T13:09:10;3.13;;;1.33;;
20290;SDS011;10304;51.074;13.754;2023-08-01T13:11:41;2.42;;;1.23;;
20290;SDS011;10304;51.074;13.754;2023-08-01T13:14:09;1.83;;;1.30;;
20290;SDS011;10304;51.074;13.754;2023-08-01T13:16:36;2.63;;;1.38;;
20290;SDS011;10304;51.074;13.754;2023-08-01T13:19:03;1.30;;;1.20;;
20290;SDS011;10304;51.074;13.754;2023-08-01T13:21:30;1.38;;;1.20;;
20290;SDS011;10304;51.074;13.754;2023-08-01T13:23:56;3.17;;;1.33;;
20290;SDS011;10304;51.074;13.754;2023-08-01T13:26:23;2.25;;;1.40;;
20290;SDS011;10304;51.074;13.754;2023-08-01T13:28:50;2.22;;;1.30;;
20290;SDS011;10304;51.074;13.754;2023-08-01T13:31:16;2.33;;;1.40;;
20290;SDS011;10304;51.074;13.754;2023-08-01T13:36:11;2.40;;;1.60;;
20290;SDS011;10304;51.074;13.754;2023-08-01T13:38:39;2.60;;;1.40;;
20290;SDS011;10304;51.074;13.754;2023-08-01T13:41:06;1.55;;;1.45;;
20290;SDS011;10304;51.074;13.754;2023-08-01T13:43:32;3.05;;;1.50;;
20290;SDS011;10304;51.074;13.754;2023-08-01T13:45:59;1.83;;;1.40;;
20290;SDS011;10304;51.074;13.754;2023-08-01T13:48:28;1.75;;;1.45;;
20290;SDS011;10304;51.074;13.754;2023-08-01T13:50:57;1.98;;;1.60;;
20290;SDS011;10304;51.074;13.754;2023-08-01T13:53:24;2.67;;;1.67;;
20290;SDS011;10304;51.074;13.754;2023-08-01T13:55:51;1.85;;;1.55;;
20290;SDS011;10304;51.074;13.754;2023-08-01T13:58:18;1.77;;;1.67;;
20290;SDS011;10304;51.074;13.754;2023-08-01T14:00:44;2.00;;;1.80;;
20290;SDS011;10304;51.074;13.754;2023-08-01T14:03:12;2.42;;;1.85;;
20290;SDS011;10304;51.074;13.754;2023-08-01T14:05:39;1.90;;;1.75;;
20290;SDS011;10304;51.074;13.754;2023-08-01T14:08:05;2.13;;;1.90;;
20290;SDS011;10304;51.074;13.754;2023-08-01T14:10:32;3.90;;;2.25;;
20290;SDS011;10304;51.074;13.754;2023-08-01T14:12:59;2.42;;;2.22;;
20290;SDS011;10304;51.074;13.754;2023-08-01T14:15:26;2.47;;;2.00;;
20290;SDS011;10304;51.074;13.754;2023-08-01T14:17:52;2.40;;;2.17;;
20290;SDS011;10304;51.074;13.754;2023-08-01T14:20:19;2.40;;;2.20;;
20290;SDS011;10304;51.074;13.754;2023-08-01T14:22:46;2.88;;;2.53;;
20290;SDS011;10304;51.074;13.754;2023-08-01T14:25:13;3.08;;;2.40;;
20290;SDS011;10304;51.074;13.754;2023-08-01T14:27:40;2.80;;;2.40;;
20290;SDS011;10304;51.074;13.754;2023-08-01T14:30:06;2.83;;;2.63;;
20290;SDS011;10304;51.074;13.754;2023-08-01T14:32:36;2.70;;;2.50;;
20290;SDS011;10304;51.074;13.754;2023-08-01T14:35:03;3.17;;;2.40;;
20290;SDS011;10304;51.074;13.754;2023-08-01T14:37:30;4.60;;;3.10;;
20290;SDS011;10304;51.074;13.754;2023-08-01T14:40:00;3.42;;;2.95;;